createdAt,value
2023-08-18T00:00:09.152Z,3.35
2023-08-18T00:02:37.426Z,3.38
2023-08-18T00:05:06.030Z,3.30
2023-08-18T00:07:34.075Z,3.22
2023-08-18T00:10:05.606Z,2.75
2023-08-18T00:12:33.939Z,3.30
2023-08-18T00:15:02.792Z,2.97
2023-08-18T00:17:31.196Z,3.40
2023-08-18T00:19:59.465Z,3.47
2023-08-18T00:22:27.462Z,3.40
2023-08-18T00:24:57.274Z,3.22
2023-08-18T00:27:25.395Z,3.17
2023-08-18T00:29:53.652Z,3.10
2023-08-18T00:32:21.692Z,3.05
2023-08-18T00:34:49.864Z,3.08
2023-08-18T00:37:17.996Z,3.20
2023-08-18T00:39:45.964Z,3.40
2023-08-18T00:42:13.905Z,3.10
2023-08-18T00:44:41.825Z,3.25
2023-08-18T00:47:09.866Z,3.05
2023-08-18T00:49:38.061Z,3.35
2023-08-18T00:52:07.552Z,3.20
2023-08-18T00:54:35.751Z,3.10
2023-08-18T00:57:04.011Z,3.25
2023-08-18T00:59:32.231Z,3.15
2023-08-18T01:02:04.014Z,3.40
2023-08-18T01:04:33.409Z,3.42
2023-08-18T01:07:01.651Z,3.40
2023-08-18T01:09:30.803Z,3.22
2023-08-18T01:12:16.499Z,3.20
2023-08-18T01:14:56.030Z,3.10
2023-08-18T01:17:41.900Z,3.10
2023-08-18T01:20:11.730Z,3.33
2023-08-18T01:22:41.577Z,3.42
2023-08-18T01:25:09.751Z,3.30
2023-08-18T01:27:37.923Z,3.53
2023-08-18T01:30:06.565Z,3.20
2023-08-18T01:32:43.508Z,3.17
2023-08-18T01:35:13.543Z,3.10
2023-08-18T01:37:43.516Z,3.20
2023-08-18T01:40:13.764Z,3.20
2023-08-18T01:42:42.318Z,3.25
2023-08-18T01:45:12.670Z,3.22
2023-08-18T01:47:40.774Z,3.10
2023-08-18T01:50:10.925Z,3.25
2023-08-18T01:52:38.963Z,3.17
2023-08-18T01:55:07.403Z,3.53
2023-08-18T01:57:35.389Z,3.17
2023-08-18T02:00:03.703Z,3.30
2023-08-18T02:02:40.832Z,2.95
2023-08-18T02:05:09.194Z,3.40
2023-08-18T02:07:37.776Z,3.17
2023-08-18T02:10:06.340Z,3.55
2023-08-18T02:12:34.352Z,3.00
2023-08-18T02:15:02.388Z,2.85
2023-08-18T02:17:32.852Z,3.17
2023-08-18T02:20:01.191Z,3.10
2023-08-18T02:22:29.156Z,3.40
2023-08-18T02:24:57.262Z,3.10
2023-08-18T02:27:27.504Z,3.10
2023-08-18T02:29:56.106Z,2.78
2023-08-18T02:32:25.514Z,3.30
2023-08-18T02:34:53.813Z,3.22
2023-08-18T02:37:21.958Z,3.10
2023-08-18T02:39:49.936Z,3.60
2023-08-18T02:42:18.040Z,3.45
2023-08-18T02:44:46.104Z,3.50
2023-08-18T02:47:14.486Z,3.40
2023-08-18T02:49:42.467Z,3.40
2023-08-18T02:52:11.639Z,3.28
2023-08-18T02:54:39.767Z,3.60
2023-08-18T02:57:08.069Z,3.50
2023-08-18T02:59:36.088Z,3.63
2023-08-18T03:02:04.074Z,3.33
2023-08-18T03:04:32.195Z,3.63
2023-08-18T03:07:01.756Z,3.30
2023-08-18T03:09:29.878Z,3.80
2023-08-18T03:11:57.863Z,3.50
2023-08-18T03:14:25.990Z,3.78
2023-08-18T03:16:56.849Z,3.65
2023-08-18T03:19:26.069Z,3.47
2023-08-18T03:21:54.013Z,3.85
2023-08-18T03:24:22.077Z,3.60
2023-08-18T03:26:50.637Z,3.60
2023-08-18T03:29:19.203Z,4.22
2023-08-18T03:31:47.421Z,3.70
2023-08-18T03:34:15.502Z,4.07
2023-08-18T03:36:44.702Z,4.18
2023-08-18T03:39:13.801Z,3.78
2023-08-18T03:41:41.734Z,3.85
2023-08-18T03:44:10.514Z,4.13
2023-08-18T03:46:39.467Z,3.85
2023-08-18T03:49:07.591Z,3.97
2023-08-18T03:51:35.617Z,4.10
2023-08-18T03:54:04.493Z,3.85
2023-08-18T03:56:33.275Z,3.92
2023-08-18T03:59:01.287Z,3.70
2023-08-18T04:01:29.775Z,4.28
2023-08-18T04:04:00.569Z,3.92
2023-08-18T04:06:28.456Z,3.75
2023-08-18T04:09:08.029Z,4.10
2023-08-18T04:11:37.494Z,4.00
2023-08-18T04:14:06.368Z,4.07
2023-08-18T04:16:34.360Z,4.07
2023-08-18T04:19:05.037Z,4.13
2023-08-18T04:21:35.005Z,3.58
2023-08-18T04:24:03.976Z,4.00
2023-08-18T04:26:32.741Z,3.58
2023-08-18T04:29:02.187Z,3.80
2023-08-18T04:31:32.121Z,3.70
2023-08-18T04:34:02.114Z,3.78
2023-08-18T04:36:30.695Z,3.60
2023-08-18T04:38:58.729Z,3.92
2023-08-18T04:41:32.882Z,4.35
2023-08-18T04:44:00.967Z,3.28
2023-08-18T04:46:32.225Z,3.90
2023-08-18T04:49:05.089Z,3.80
2023-08-18T04:51:33.194Z,3.40
2023-08-18T04:54:01.230Z,3.42
2023-08-18T04:56:29.569Z,3.42
2023-08-18T04:58:57.557Z,3.60
2023-08-18T05:01:26.556Z,3.75
2023-08-18T05:03:54.651Z,3.97
2023-08-18T05:06:22.654Z,3.25
2023-08-18T05:08:50.607Z,3.83
2023-08-18T05:11:19.160Z,3.55
2023-08-18T05:13:47.232Z,3.15
2023-08-18T05:16:15.351Z,3.92
2023-08-18T05:18:43.415Z,4.10
2023-08-18T05:21:11.359Z,4.28
2023-08-18T05:23:39.876Z,6.68
2023-08-18T05:26:08.433Z,6.80
2023-08-18T05:28:36.819Z,7.88
2023-08-18T05:31:05.193Z,6.90
2023-08-18T05:33:33.294Z,7.05
2023-08-18T05:36:01.729Z,7.35
2023-08-18T05:38:29.769Z,8.00
2023-08-18T05:45:30.280Z,8.30
2023-08-18T05:47:59.380Z,8.77
2023-08-18T05:50:29.683Z,7.72
2023-08-18T05:52:57.831Z,7.30
2023-08-18T05:55:26.268Z,7.97
2023-08-18T05:57:54.363Z,8.10
2023-08-18T06:00:22.659Z,7.95
2023-08-18T06:02:50.654Z,8.00
2023-08-18T06:05:18.852Z,8.57
2023-08-18T06:07:46.804Z,8.65
2023-08-18T06:10:14.844Z,9.55
2023-08-18T06:12:43.020Z,8.57
2023-08-18T06:15:12.310Z,7.65
2023-08-18T06:17:41.078Z,7.45
2023-08-18T06:20:09.522Z,9.13
2023-08-18T06:22:38.142Z,7.35
2023-08-18T06:25:08.605Z,7.78
2023-08-18T06:27:36.678Z,8.90
2023-08-18T06:30:05.110Z,7.75
2023-08-18T06:32:34.979Z,8.63
2023-08-18T06:35:03.302Z,10.63
2023-08-18T06:37:31.480Z,9.55
2023-08-18T06:39:59.562Z,9.48
2023-08-18T06:42:27.922Z,9.00
2023-08-18T06:44:56.359Z,9.00
2023-08-18T06:47:24.730Z,9.20
2023-08-18T06:49:52.765Z,8.60
2023-08-18T06:52:20.745Z,7.63
2023-08-18T06:54:48.813Z,7.32
2023-08-18T06:57:16.880Z,8.00
2023-08-18T06:59:45.034Z,7.82
2023-08-18T07:02:13.128Z,7.82
2023-08-18T07:04:41.190Z,7.63
2023-08-18T07:07:09.089Z,7.10
2023-08-18T07:09:37.462Z,8.90
2023-08-18T07:12:05.926Z,7.28
2023-08-18T07:14:33.962Z,7.28
2023-08-18T07:17:01.861Z,6.88
2023-08-18T07:19:29.962Z,7.72
2023-08-18T07:23:13.723Z,8.00
2023-08-18T07:25:43.460Z,7.38
2023-08-18T07:28:12.390Z,7.30
2023-08-18T07:30:40.441Z,7.20
2023-08-18T07:33:08.463Z,6.85
2023-08-18T07:35:36.758Z,7.75
2023-08-18T07:38:04.907Z,7.97
2023-08-18T07:40:32.911Z,7.00
2023-08-18T07:43:00.995Z,7.38
2023-08-18T07:45:29.165Z,7.15
2023-08-18T07:47:58.779Z,7.47
2023-08-18T07:50:26.976Z,6.78
2023-08-18T07:52:55.208Z,6.82
2023-08-18T07:55:23.700Z,7.90
2023-08-18T07:57:51.688Z,7.25
2023-08-18T08:00:22.718Z,7.07
2023-08-18T08:02:51.098Z,6.60
2023-08-18T08:05:20.654Z,6.25
2023-08-18T08:07:49.938Z,7.00
2023-08-18T08:10:18.612Z,7.32
2023-08-18T08:12:49.428Z,6.03
2023-08-18T08:15:18.492Z,7.57
2023-08-18T08:17:47.035Z,7.20
2023-08-18T08:20:18.294Z,6.40
2023-08-18T08:22:49.024Z,6.25
2023-08-18T08:25:18.638Z,6.13
2023-08-18T08:27:46.910Z,5.75
2023-08-18T08:30:25.892Z,6.30
2023-08-18T08:33:05.504Z,6.15
2023-08-18T08:35:35.306Z,5.60
2023-08-18T08:38:03.492Z,5.95
2023-08-18T08:40:31.842Z,6.28
2023-08-18T08:45:31.580Z,6.53
2023-08-18T08:48:06.446Z,6.78
2023-08-18T08:50:39.483Z,6.63
2023-08-18T08:53:12.002Z,7.00
